Terminal Aerodrome Forecast
Issued by NWS

Home | Current Version | Previous Version | Text Only | Print | Product List | Glossary On
Versions: 1 2 3 4 5 6 7 8 9 10 11 12 13 14 15 16 17 18 19 20 21 22 23 24 25 26 27 28 29 30 31 32 33 34 35 36 37 38 39 40 41
000
FTUS46 KOTX 211739
TAFCOE
TAF
KCOE 211739Z 2118/2218 07006KT P6SM SCT040 SCT100
     FM212300 06007KT P6SM VCTS SCT060CB BKN090
     FM220400 04008KT P6SM FEW050 BKN100
     FM220700 05009KT P6SM -SHRA VCTS FEW040 SCT070CB OVC120
     FM221200 06010KT P6SM VCSH SCT050 BKN080
      AMD LTD TO CLD AND VIS=

USA.gov is the U.S. government's official web portal to all federal, state and local government web resources and services.